sensor_id;sensor_type;location;lat;lon;timestamp;pressure;altitude;pressure_sealevel;temperature;humidity
49943;BME280;36011;53.362;58.948;2023-01-27T00:02:32;97117.66;;;-7.31;46.64
49943;BME280;36011;53.362;58.948;2023-01-27T00:05:36;97144.94;;;-7.31;46.69
49943;BME280;36011;53.362;58.948;2023-01-27T00:08:40;97135.66;;;-7.20;47.06
49943;BME280;36011;53.362;58.948;2023-01-27T00:11:43;97110.91;;;-7.23;46.68
49943;BME280;36011;53.362;58.948;2023-01-27T00:15:06;97116.88;;;-7.22;46.86
49943;BME280;36011;53.362;58.948;2023-01-27T00:18:08;97114.38;;;-7.17;46.77
49943;BME280;36011;53.362;58.948;2023-01-27T00:21:11;97110.13;;;-7.14;46.72
49943;BME280;36011;53.362;58.948;2023-01-27T00:24:33;97116.22;;;-7.01;46.46
49943;BME280;36011;53.362;58.948;2023-01-27T00:27:39;97122.94;;;-7.12;46.74
49943;BME280;36011;53.362;58.948;2023-01-27T00:30:41;97116.16;;;-7.09;46.67
49943;BME280;36011;53.362;58.948;2023-01-27T00:33:44;97121.34;;;-6.98;46.57
49943;BME280;36011;53.362;58.948;2023-01-27T00:36:50;97119.50;;;-7.14;47.35
49943;BME280;36011;53.362;58.948;2023-01-27T00:39:54;97115.31;;;-7.06;47.52
49943;BME280;36011;53.362;58.948;2023-01-27T00:42:58;97112.00;;;-6.96;47.30
49943;BME280;36011;53.362;58.948;2023-01-27T00:46:03;97134.19;;;-6.92;46.95
49943;BME280;36011;53.362;58.948;2023-01-27T00:49:07;97109.47;;;-6.93;47.23
49943;BME280;36011;53.362;58.948;2023-01-27T00:52:10;97109.53;;;-6.81;47.32
49943;BME280;36011;53.362;58.948;2023-01-27T00:55:17;97103.50;;;-6.89;46.81
49943;BME280;36011;53.362;58.948;2023-01-27T00:58:23;97121.41;;;-6.89;47.01
49943;BME280;36011;53.362;58.948;2023-01-27T01:01:26;97106.09;;;-6.86;46.96
49943;BME280;36011;53.362;58.948;2023-01-27T01:04:30;97106.91;;;-6.91;47.17
49943;BME280;36011;53.362;58.948;2023-01-27T01:07:33;97106.03;;;-6.92;47.59
49943;BME280;36011;53.362;58.948;2023-01-27T01:10:37;97100.94;;;-6.90;47.10
49943;BME280;36011;53.362;58.948;2023-01-27T01:13:42;97090.72;;;-6.86;47.32
49943;BME280;36011;53.362;58.948;2023-01-27T01:16:44;97105.25;;;-6.83;47.47
49943;BME280;36011;53.362;58.948;2023-01-27T01:19:47;97089.00;;;-6.93;47.20
49943;BME280;36011;53.362;58.948;2023-01-27T01:22:50;97087.28;;;-6.92;48.12
49943;BME280;36011;53.362;58.948;2023-01-27T01:25:54;97094.97;;;-6.92;47.68
49943;BME280;36011;53.362;58.948;2023-01-27T01:28:57;97104.38;;;-6.87;47.41
49943;BME280;36011;53.362;58.948;2023-01-27T01:32:01;97106.91;;;-6.93;48.18
49943;BME280;36011;53.362;58.948;2023-01-27T01:35:05;97116.31;;;-6.86;48.01
49943;BME280;36011;53.362;58.948;2023-01-27T01:38:08;97105.16;;;-6.97;47.42
49943;BME280;36011;53.362;58.948;2023-01-27T01:41:14;97109.50;;;-6.87;47.19
49943;BME280;36011;53.362;58.948;2023-01-27T01:44:22;97109.59;;;-6.71;47.68
49943;BME280;36011;53.362;58.948;2023-01-27T01:47:26;97105.28;;;-6.80;46.90
49943;BME280;36011;53.362;58.948;2023-01-27T01:50:28;97119.00;;;-6.70;47.70
49943;BME280;36011;53.362;58.948;2023-01-27T01:53:32;97115.66;;;-6.59;47.24
49943;BME280;36011;53.362;58.948;2023-01-27T02:02:42;97110.63;;;-6.40;46.91
49943;BME280;36011;53.362;58.948;2023-01-27T02:05:44;97121.78;;;-6.30;46.73
49943;BME280;36011;53.362;58.948;2023-01-27T02:08:47;97132.88;;;-6.28;46.80
49943;BME280;36011;53.362;58.948;2023-01-27T02:11:52;97131.19;;;-6.26;46.74
49943;BME280;36011;53.362;58.948;2023-01-27T02:14:56;97137.25;;;-6.11;45.80
49943;BME280;36011;53.362;58.948;2023-01-27T02:17:59;97134.66;;;-6.18;46.67
49943;BME280;36011;53.362;58.948;2023-01-27T02:21:03;97138.16;;;-5.95;45.84
49943;BME280;36011;53.362;58.948;2023-01-27T02:24:06;97133.88;;;-5.99;46.10
49943;BME280;36011;53.362;58.948;2023-01-27T02:27:13;97139.03;;;-5.96;46.36
49943;BME280;36011;53.362;58.948;2023-01-27T02:30:16;97136.44;;;-5.90;46.02
49943;BME280;36011;53.362;58.948;2023-01-27T02:33:18;97133.94;;;-5.76;45.85
49943;BME280;36011;53.362;58.948;2023-01-27T02:36:22;97139.06;;;-5.82;45.92
49943;BME280;36011;53.362;58.948;2023-01-27T02:39:27;97155.28;;;-5.81;46.59
49943;BME280;36011;53.362;58.948;2023-01-27T02:42:31;97145.09;;;-5.63;45.91
49943;BME280;36011;53.362;58.948;2023-01-27T02:45:33;97152.81;;;-5.60;46.44
49943;BME280;36011;53.362;58.948;2023-01-27T02:48:37;97162.16;;;-5.60;45.70
49943;BME280;36011;53.362;58.948;2023-01-27T02:51:41;97157.13;;;-5.40;45.59
49943;BME280;36011;53.362;58.948;2023-01-27T02:54:44;97151.16;;;-5.30;45.66
49943;BME280;36011;53.362;58.948;2023-01-27T02:57:48;97152.84;;;-5.35;45.25
49943;BME280;36011;53.362;58.948;2023-01-27T03:00:51;97147.75;;;-5.29;45.26
49943;BME280;36011;53.362;58.948;2023-01-27T03:03:54;97153.72;;;-5.29;45.34
49943;BME280;36011;53.362;58.948;2023-01-27T03:06:57;97157.97;;;-5.45;45.57
49943;BME280;36011;53.362;58.948;2023-01-27T03:10:00;97165.66;;;-5.32;45.47
49943;BME280;36011;53.362;58.948;2023-01-27T03:13:03;97169.06;;;-5.49;45.28
49943;BME280;36011;53.362;58.948;2023-01-27T03:16:06;97160.53;;;-5.35;45.17
49943;BME280;36011;53.362;58.948;2023-01-27T03:19:27;97167.41;;;-5.28;44.19
49943;BME280;36011;53.362;58.948;2023-01-27T03:22:31;97166.53;;;-5.39;45.23
49943;BME280;36011;53.362;58.948;2023-01-27T03:25:34;97187.03;;;-5.46;44.97
49943;BME280;36011;53.362;58.948;2023-01-27T03:28:38;97171.66;;;-5.46;44.97
49943;BME280;36011;53.362;58.948;2023-01-27T03:31:41;97158.84;;;-5.35;44.84
49943;BME280;36011;53.362;58.948;2023-01-27T03:34:43;97182.78;;;-5.36;44.97
49943;BME280;36011;53.362;58.948;2023-01-27T03:37:47;97178.53;;;-5.28;44.60
49943;BME280;36011;53.362;58.948;2023-01-27T03:41:09;97194.78;;;-5.20;44.88
49943;BME280;36011;53.362;58.948;2023-01-27T03:44:30;97178.47;;;-5.42;44.78
49943;BME280;36011;53.362;58.948;2023-01-27T03:47:51;97193.00;;;-5.47;45.12
49943;BME280;36011;53.362;58.948;2023-01-27T03:50:57;97180.19;;;-5.44;45.55
49943;BME280;36011;53.362;58.948;2023-01-27T03:54:00;97198.16;;;-5.42;44.80
49943;BME280;36011;53.362;58.948;2023-01-27T03:57:03;97204.09;;;-5.57;45.13
49943;BME280;36011;53.362;58.948;2023-01-27T04:00:07;97192.19;;;-5.24;44.89
49943;BME280;36011;53.362;58.948;2023-01-27T04:03:10;97198.19;;;-5.22;44.88
49943;BME280;36011;53.362;58.948;2023-01-27T04:06:32;97209.28;;;-5.32;44.71
49943;BME280;36011;53.362;58.948;2023-01-27T04:09:53;97198.19;;;-5.25;44.30
49943;BME280;36011;53.362;58.948;2023-01-27T04:12:56;97206.75;;;-5.20;44.84
49943;BME280;36011;53.362;58.948;2023-01-27T04:15:59;97198.22;;;-5.17;44.55
49943;BME280;36011;53.362;58.948;2023-01-27T04:19:02;97215.31;;;-5.23;44.49
49943;BME280;36011;53.362;58.948;2023-01-27T04:22:06;97219.66;;;-4.83;43.22
49943;BME280;36011;53.362;58.948;2023-01-27T04:25:10;97226.50;;;-4.88;43.71
49943;BME280;36011;53.362;58.948;2023-01-27T04:28:13;97243.59;;;-4.84;42.86
49943;BME280;36011;53.362;58.948;2023-01-27T04:31:16;97223.91;;;-4.85;43.00
49943;BME280;36011;53.362;58.948;2023-01-27T04:34:20;97226.50;;;-4.91;43.37
49943;BME280;36011;53.362;58.948;2023-01-27T04:37:24;97218.81;;;-4.87;43.42
49943;BME280;36011;53.362;58.948;2023-01-27T04:40:27;97225.63;;;-4.95;43.74
49943;BME280;36011;53.362;58.948;2023-01-27T04:43:31;97225.63;;;-4.84;43.16
49943;BME280;36011;53.362;58.948;2023-01-27T04:46:34;97239.34;;;-4.78;43.35
49943;BME280;36011;53.362;58.948;2023-01-27T04:49:40;97243.63;;;-4.74;42.64
49943;BME280;36011;53.362;58.948;2023-01-27T04:52:43;97226.50;;;-4.73;42.76
49943;BME280;36011;53.362;58.948;2023-01-27T04:55:46;97235.94;;;-4.63;42.53
49943;BME280;36011;53.362;58.948;2023-01-27T04:58:49;97233.34;;;-4.54;42.40
49943;BME280;36011;53.362;58.948;2023-01-27T05:01:52;97219.69;;;-4.56;42.68
49943;BME280;36011;53.362;58.948;2023-01-27T05:04:56;97225.66;;;-4.55;42.76
49943;BME280;36011;53.362;58.948;2023-01-27T05:08:03;97226.50;;;-4.21;41.68
49943;BME280;36011;53.362;58.948;2023-01-27T05:11:06;97228.22;;;-4.20;41.93
49943;BME280;36011;53.362;58.948;2023-01-27T05:14:18;97229.06;;;-4.13;41.67
49943;BME280;36011;53.362;58.948;2023-01-27T05:17:30;97216.19;;;-4.02;42.07
49943;BME280;36011;53.362;58.948;2023-01-27T05:20:33;97223.03;;;-3.88;41.19
49943;BME280;36011;53.362;58.948;2023-01-27T05:23:39;97223.03;;;-3.89;41.25
49943;BME280;36011;53.362;58.948;2023-01-27T05:26:42;97219.53;;;-3.67;40.79
49943;BME280;36011;53.362;58.948;2023-01-27T05:29:44;97230.69;;;-3.80;41.08
49943;BME280;36011;53.362;58.948;2023-01-27T05:32:48;97229.84;;;-3.73;41.25
49943;BME280;36011;53.362;58.948;2023-01-27T05:35:58;97229.81;;;-3.67;41.16
49943;BME280;36011;53.362;58.948;2023-01-27T05:39:07;97251.13;;;-3.35;40.49
49943;BME280;36011;53.362;58.948;2023-01-27T05:42:17;97260.59;;;-3.36;40.25
49943;BME280;36011;53.362;58.948;2023-01-27T05:45:20;97243.44;;;-3.40;40.61
49943;BME280;36011;53.362;58.948;2023-01-27T05:48:29;97241.69;;;-3.32;40.25
49943;BME280;36011;53.362;58.948;2023-01-27T05:51:34;97251.97;;;-3.23;39.98
49943;BME280;36011;53.362;58.948;2023-01-27T05:54:37;97257.94;;;-3.19;39.93
49943;BME280;36011;53.362;58.948;2023-01-27T05:57:43;97256.97;;;-2.98;39.62
49943;BME280;36011;53.362;58.948;2023-01-27T06:00:51;97260.44;;;-3.05;39.85
49943;BME280;36011;53.362;58.948;2023-01-27T06:03:54;97250.97;;;-3.00;39.91
49943;BME280;36011;53.362;58.948;2023-01-27T06:06:58;97260.25;;;-2.75;39.19
49943;BME280;36011;53.362;58.948;2023-01-27T06:10:02;97260.00;;;-2.38;38.45
49943;BME280;36011;53.362;58.948;2023-01-27T06:13:07;97274.53;;;-2.26;38.85
49943;BME280;36011;53.362;58.948;2023-01-27T06:16:16;97273.56;;;-2.13;37.91
49943;BME280;36011;53.362;58.948;2023-01-27T06:19:32;97276.84;;;-1.94;37.44
49943;BME280;36011;53.362;58.948;2023-01-27T06:26:26;97265.63;;;-1.93;37.39
49943;BME280;36011;53.362;58.948;2023-01-27T06:29:34;97282.16;;;-2.09;37.21
49943;BME280;36011;53.362;58.948;2023-01-27T06:32:48;97298.66;;;-2.36;37.35
49943;BME280;36011;53.362;58.948;2023-01-27T06:36:10;97286.94;;;-2.85;38.13
49943;BME280;36011;53.362;58.948;2023-01-27T06:39:37;97295.69;;;-3.24;38.67
49943;BME280;36011;53.362;58.948;2023-01-27T06:42:43;97294.88;;;-3.28;38.62
49943;BME280;36011;53.362;58.948;2023-01-27T06:45:48;97294.91;;;-3.49;38.96
49943;BME280;36011;53.362;58.948;2023-01-27T06:48:51;97283.78;;;-3.42;39.33
49943;BME280;36011;53.362;58.948;2023-01-27T06:51:56;97283.34;;;-2.61;38.30
49943;BME280;36011;53.362;58.948;2023-01-27T06:55:02;97289.53;;;0.21;34.01
49943;BME280;36011;53.362;58.948;2023-01-27T06:58:09;97299.78;;;4.65;29.69
49943;BME280;36011;53.362;58.948;2023-01-27T07:01:12;97307.41;;;9.15;26.04
49943;BME280;36011;53.362;58.948;2023-01-27T07:04:15;97311.31;;;11.55;22.95
49943;BME280;36011;53.362;58.948;2023-01-27T07:07:18;97320.38;;;11.07;23.38
49943;BME280;36011;53.362;58.948;2023-01-27T07:10:21;97301.09;;;9.02;23.38
49943;BME280;36011;53.362;58.948;2023-01-27T07:13:24;97306.91;;;7.06;26.05
49943;BME280;36011;53.362;58.948;2023-01-27T07:16:27;97285.53;;;5.46;28.37
49943;BME280;36011;53.362;58.948;2023-01-27T07:19:30;97288.19;;;4.22;29.33
49943;BME280;36011;53.362;58.948;2023-01-27T07:22:34;97287.28;;;3.68;30.32
49943;BME280;36011;53.362;58.948;2023-01-27T07:25:37;97300.00;;;3.49;30.16
49943;BME280;36011;53.362;58.948;2023-01-27T07:28:41;97290.50;;;3.48;28.08
49943;BME280;36011;53.362;58.948;2023-01-27T07:31:44;97300.53;;;3.01;28.13
49943;BME280;36011;53.362;58.948;2023-01-27T07:34:47;97294.88;;;2.85;27.69
49943;BME280;36011;53.362;58.948;2023-01-27T07:37:50;97284.75;;;2.76;27.81
49943;BME280;36011;53.362;58.948;2023-01-27T07:40:54;97294.63;;;2.63;27.66
49943;BME280;36011;53.362;58.948;2023-01-27T07:43:58;97290.78;;;2.77;27.70
49943;BME280;36011;53.362;58.948;2023-01-27T07:47:01;97300.81;;;2.90;27.69
49943;BME280;36011;53.362;58.948;2023-01-27T07:50:09;97299.06;;;2.91;27.95
49943;BME280;36011;53.362;58.948;2023-01-27T07:53:29;97286.28;;;3.14;27.33
49943;BME280;36011;53.362;58.948;2023-01-27T07:56:35;97284.75;;;3.07;27.67
49943;BME280;36011;53.362;58.948;2023-01-27T07:59:40;97287.53;;;3.01;27.59
49943;BME280;36011;53.362;58.948;2023-01-27T08:02:44;97288.84;;;2.85;27.12
49943;BME280;36011;53.362;58.948;2023-01-27T08:05:46;97288.28;;;2.41;27.52
49943;BME280;36011;53.362;58.948;2023-01-27T08:08:51;97296.28;;;2.33;27.46
49943;BME280;36011;53.362;58.948;2023-01-27T08:12:02;97301.97;;;2.13;27.34
49943;BME280;36011;53.362;58.948;2023-01-27T08:19:37;97301.69;;;1.49;27.78
49943;BME280;36011;53.362;58.948;2023-01-27T08:23:32;97311.81;;;1.21;28.29
49943;BME280;36011;53.362;58.948;2023-01-27T08:26:35;97310.69;;;0.91;28.96
49943;BME280;36011;53.362;58.948;2023-01-27T08:29:39;97316.41;;;1.07;28.66
49943;BME280;36011;53.362;58.948;2023-01-27T08:32:42;97307.94;;;1.41;28.78
49943;BME280;36011;53.362;58.948;2023-01-27T08:35:47;97311.09;;;1.55;28.37
49943;BME280;36011;53.362;58.948;2023-01-27T08:38:50;97304.75;;;1.67;28.40
49943;BME280;36011;53.362;58.948;2023-01-27T08:41:54;97295.88;;;1.78;28.53
49943;BME280;36011;53.362;58.948;2023-01-27T08:44:59;97310.31;;;1.50;29.07
49943;BME280;36011;53.362;58.948;2023-01-27T08:48:01;97299.53;;;1.29;29.34
49943;BME280;36011;53.362;58.948;2023-01-27T08:51:06;97295.41;;;1.21;29.43
49943;BME280;36011;53.362;58.948;2023-01-27T08:54:09;97278.72;;;0.90;29.69
49943;BME280;36011;53.362;58.948;2023-01-27T08:57:14;97288.41;;;0.82;29.37
49943;BME280;36011;53.362;58.948;2023-01-27T09:00:21;97274.31;;;0.52;30.09
49943;BME280;36011;53.362;58.948;2023-01-27T09:03:25;97272.75;;;0.42;30.01
49943;BME280;36011;53.362;58.948;2023-01-27T09:06:28;97267.06;;;0.71;29.77
49943;BME280;36011;53.362;58.948;2023-01-27T09:09:34;97263.34;;;2.34;28.14
49943;BME280;36011;53.362;58.948;2023-01-27T09:12:37;97273.16;;;5.51;24.72
49943;BME280;36011;53.362;58.948;2023-01-27T09:15:41;97276.69;;;5.03;24.71
49943;BME280;36011;53.362;58.948;2023-01-27T09:18:44;97282.91;;;3.97;25.62
49943;BME280;36011;53.362;58.948;2023-01-27T09:21:48;97262.81;;;3.16;26.33
49943;BME280;36011;53.362;58.948;2023-01-27T09:24:51;97299.88;;;2.60;26.74
49943;BME280;36011;53.362;58.948;2023-01-27T09:27:56;97282.13;;;2.09;27.80
49943;BME280;36011;53.362;58.948;2023-01-27T09:31:00;97264.34;;;1.95;27.89
49943;BME280;36011;53.362;58.948;2023-01-27T09:34:03;97265.84;;;1.68;28.67
49943;BME280;36011;53.362;58.948;2023-01-27T09:37:08;97288.44;;;1.63;28.97
49943;BME280;36011;53.362;58.948;2023-01-27T09:40:17;97278.88;;;1.26;29.49
49943;BME280;36011;53.362;58.948;2023-01-27T09:54:33;97294.66;;;0.71;30.83
49943;BME280;36011;53.362;58.948;2023-01-27T09:57:17;97293.16;;;1.04;30.71
49943;BME280;36011;53.362;58.948;2023-01-27T10:13:21;97265.63;;;2.46;28.65
49943;BME280;36011;53.362;58.948;2023-01-27T10:23:39;97248.94;;;3.45;28.18
49943;BME280;36011;53.362;58.948;2023-01-27T10:26:53;97268.72;;;7.78;23.59
49943;BME280;36011;53.362;58.948;2023-01-27T10:33:19;97273.06;;;12.98;19.53
49943;BME280;36011;53.362;58.948;2023-01-27T10:43:03;97274.13;;;11.45;18.97
49943;BME280;36011;53.362;58.948;2023-01-27T10:49:20;97271.38;;;5.97;24.93
49943;BME280;36011;53.362;58.948;2023-01-27T10:52:44;97276.25;;;4.15;27.03
49943;BME280;36011;53.362;58.948;2023-01-27T10:55:54;97280.84;;;2.92;28.08
49943;BME280;36011;53.362;58.948;2023-01-27T10:59:04;97272.84;;;2.35;28.80
49943;BME280;36011;53.362;58.948;2023-01-27T11:05:19;97273.31;;;1.80;28.57
49943;BME280;36011;53.362;58.948;2023-01-27T11:08:24;97282.84;;;1.02;29.78
49943;BME280;36011;53.362;58.948;2023-01-27T11:11:29;97285.69;;;0.43;30.05
49943;BME280;36011;53.362;58.948;2023-01-27T11:14:50;97298.03;;;0.29;30.87
49943;BME280;36011;53.362;58.948;2023-01-27T11:17:59;97285.97;;;-0.25;31.24
49943;BME280;36011;53.362;58.948;2023-01-27T11:21:05;97286.38;;;-0.51;31.15
49943;BME280;36011;53.362;58.948;2023-01-27T11:24:25;97290.47;;;-0.37;31.66
49943;BME280;36011;53.362;58.948;2023-01-27T11:27:52;97282.44;;;-0.79;31.95
49943;BME280;36011;53.362;58.948;2023-01-27T11:38:15;97266.75;;;-1.33;33.40
49943;BME280;36011;53.362;58.948;2023-01-27T11:41:23;97271.19;;;-1.45;33.00
49943;BME280;36011;53.362;58.948;2023-01-27T11:44:32;97265.78;;;-1.23;33.58
49943;BME280;36011;53.362;58.948;2023-01-27T11:47:38;97253.75;;;-1.24;33.25
49943;BME280;36011;53.362;58.948;2023-01-27T11:50:41;97250.16;;;-1.14;32.55
49943;BME280;36011;53.362;58.948;2023-01-27T11:53:47;97254.53;;;-1.19;32.89
49943;BME280;36011;53.362;58.948;2023-01-27T11:56:52;97262.47;;;-1.34;33.08
49943;BME280;36011;53.362;58.948;2023-01-27T11:59:59;97266.91;;;-1.47;33.28
49943;BME280;36011;53.362;58.948;2023-01-27T12:06:14;97273.88;;;-1.52;33.00
49943;BME280;36011;53.362;58.948;2023-01-27T12:12:35;97275.56;;;-1.53;33.74
49943;BME280;36011;53.362;58.948;2023-01-27T12:15:38;97270.31;;;-1.45;34.63
49943;BME280;36011;53.362;58.948;2023-01-27T12:19:01;97267.94;;;-1.62;34.92
49943;BME280;36011;53.362;58.948;2023-01-27T12:22:43;97253.75;;;-2.08;35.29
49943;BME280;36011;53.362;58.948;2023-01-27T12:25:56;97260.84;;;-2.36;35.70
49943;BME280;36011;53.362;58.948;2023-01-27T12:29:02;97253.13;;;-2.36;36.04
49943;BME280;36011;53.362;58.948;2023-01-27T12:32:13;97253.22;;;-2.48;36.24
49943;BME280;36011;53.362;58.948;2023-01-27T12:38:30;97247.31;;;-2.64;36.36
49943;BME280;36011;53.362;58.948;2023-01-27T12:41:36;97235.25;;;-2.56;36.25
49943;BME280;36011;53.362;58.948;2023-01-27T12:44:40;97241.09;;;-2.34;35.96
49943;BME280;36011;53.362;58.948;2023-01-27T12:51:03;97253.47;;;-2.85;36.82
49943;BME280;36011;53.362;58.948;2023-01-27T12:54:39;97254.38;;;-2.95;36.73
49943;BME280;36011;53.362;58.948;2023-01-27T12:57:42;97254.34;;;-2.86;36.65
49943;BME280;36011;53.362;58.948;2023-01-27T13:00:47;97247.44;;;-2.82;35.92
49943;BME280;36011;53.362;58.948;2023-01-27T13:03:56;97230.97;;;-2.61;34.71
49943;BME280;36011;53.362;58.948;2023-01-27T13:07:03;97238.47;;;-2.28;34.48
49943;BME280;36011;53.362;58.948;2023-01-27T13:10:15;97223.72;;;-2.12;33.73
49943;BME280;36011;53.362;58.948;2023-01-27T13:13:20;97224.53;;;-2.07;33.59
49943;BME280;36011;53.362;58.948;2023-01-27T13:16:29;97212.66;;;-2.24;33.51
49943;BME280;36011;53.362;58.948;2023-01-27T13:19:42;97222.94;;;-2.21;33.50
49943;BME280;36011;53.362;58.948;2023-01-27T13:22:50;97222.00;;;-2.11;32.98
49943;BME280;36011;53.362;58.948;2023-01-27T13:32:12;97233.84;;;-1.92;32.82
49943;BME280;36011;53.362;58.948;2023-01-27T13:45:25;97217.50;;;-1.91;32.25
49943;BME280;36011;53.362;58.948;2023-01-27T13:48:33;97213.19;;;-1.89;32.26
49943;BME280;36011;53.362;58.948;2023-01-27T13:51:37;97234.63;;;-1.84;32.68
49943;BME280;36011;53.362;58.948;2023-01-27T13:54:40;97225.06;;;-1.72;32.01
49943;BME280;36011;53.362;58.948;2023-01-27T13:57:50;97229.19;;;-1.58;32.17
49943;BME280;36011;53.362;58.948;2023-01-27T14:10:24;97248.47;;;-1.95;32.26
49943;BME280;36011;53.362;58.948;2023-01-27T14:26:20;97245.97;;;-2.03;32.22
49943;BME280;36011;53.362;58.948;2023-01-27T14:32:37;97256.34;;;-2.09;33.04
49943;BME280;36011;53.362;58.948;2023-01-27T14:35:44;97235.75;;;-2.15;32.94
49943;BME280;36011;53.362;58.948;2023-01-27T14:42:00;97233.28;;;-2.23;33.16
49943;BME280;36011;53.362;58.948;2023-01-27T14:45:21;97218.78;;;-2.35;33.52
49943;BME280;36011;53.362;58.948;2023-01-27T15:02:51;97205.44;;;-2.95;34.61
49943;BME280;36011;53.362;58.948;2023-01-27T15:06:01;97212.34;;;-3.00;34.47
49943;BME280;36011;53.362;58.948;2023-01-27T15:15:55;97189.34;;;-3.26;34.73
49943;BME280;36011;53.362;58.948;2023-01-27T15:22:20;97185.09;;;-3.38;34.94
49943;BME280;36011;53.362;58.948;2023-01-27T15:25:45;97196.31;;;-3.50;34.91
49943;BME280;36011;53.362;58.948;2023-01-27T15:28:49;97190.38;;;-3.67;35.39
49943;BME280;36011;53.362;58.948;2023-01-27T15:38:30;97159.50;;;-3.63;35.63
49943;BME280;36011;53.362;58.948;2023-01-27T15:41:37;97184.34;;;-3.60;35.64
49943;BME280;36011;53.362;58.948;2023-01-27T15:44:58;97183.56;;;-3.73;35.97
49943;BME280;36011;53.362;58.948;2023-01-27T15:48:04;97174.91;;;-3.63;36.07
49943;BME280;36011;53.362;58.948;2023-01-27T15:51:09;97185.25;;;-3.69;36.27
49943;BME280;36011;53.362;58.948;2023-01-27T15:54:18;97212.69;;;-3.80;36.46
49943;BME280;36011;53.362;58.948;2023-01-27T15:57:27;97204.09;;;-3.70;36.25
49943;BME280;36011;53.362;58.948;2023-01-27T16:03:37;97177.59;;;-3.84;36.72
49943;BME280;36011;53.362;58.948;2023-01-27T16:06:49;97179.22;;;-3.63;36.68
49943;BME280;36011;53.362;58.948;2023-01-27T16:09:53;97162.13;;;-3.73;37.28
49943;BME280;36011;53.362;58.948;2023-01-27T16:16:20;97151.84;;;-3.75;36.99
49943;BME280;36011;53.362;58.948;2023-01-27T16:19:25;97157.03;;;-3.89;37.45
49943;BME280;36011;53.362;58.948;2023-01-27T16:22:36;97168.16;;;-3.79;37.67
49943;BME280;36011;53.362;58.948;2023-01-27T16:25:43;97186.97;;;-3.77;37.56
49943;BME280;36011;53.362;58.948;2023-01-27T16:28:55;97192.97;;;-3.70;37.71
49943;BME280;36011;53.362;58.948;2023-01-27T16:32:02;97188.69;;;-3.73;37.66
49943;BME280;36011;53.362;58.948;2023-01-27T16:35:05;97180.13;;;-3.75;37.86
49943;BME280;36011;53.362;58.948;2023-01-27T16:38:18;97173.22;;;-3.61;37.66
49943;BME280;36011;53.362;58.948;2023-01-27T16:41:26;97185.19;;;-3.53;38.05
49943;BME280;36011;53.362;58.948;2023-01-27T16:44:37;97190.38;;;-3.66;38.24
49943;BME280;36011;53.362;58.948;2023-01-27T16:47:43;97186.97;;;-3.65;38.32
49943;BME280;36011;53.362;58.948;2023-01-27T16:50:47;97207.56;;;-3.71;38.55
49943;BME280;36011;53.362;58.948;2023-01-27T16:53:54;97201.53;;;-3.74;38.90
49943;BME280;36011;53.362;58.948;2023-01-27T16:56:57;97193.03;;;-3.96;38.98
49943;BME280;36011;53.362;58.948;2023-01-27T17:00:03;97193.84;;;-3.85;39.25
49943;BME280;36011;53.362;58.948;2023-01-27T17:03:14;97185.34;;;-3.99;39.26
49943;BME280;36011;53.362;58.948;2023-01-27T17:06:21;97185.31;;;-3.87;39.55
49943;BME280;36011;53.362;58.948;2023-01-27T17:09:28;97186.97;;;-3.71;39.27
49943;BME280;36011;53.362;58.948;2023-01-27T17:12:43;97186.13;;;-3.76;39.52
49943;BME280;36011;53.362;58.948;2023-01-27T17:15:48;97188.66;;;-3.62;39.64
49943;BME280;36011;53.362;58.948;2023-01-27T17:18:55;97191.28;;;-3.84;39.97
49943;BME280;36011;53.362;58.948;2023-01-27T17:22:00;97200.72;;;-3.84;40.46
49943;BME280;36011;53.362;58.948;2023-01-27T17:25:05;97198.22;;;-4.07;40.83
49943;BME280;36011;53.362;58.948;2023-01-27T17:28:12;97205.06;;;-4.04;40.77
49943;BME280;36011;53.362;58.948;2023-01-27T17:31:22;97212.81;;;-4.32;41.48
49943;BME280;36011;53.362;58.948;2023-01-27T17:34:26;97206.81;;;-4.31;41.37
49943;BME280;36011;53.362;58.948;2023-01-27T17:37:31;97206.81;;;-4.39;41.70
49943;BME280;36011;53.362;58.948;2023-01-27T17:40:35;97208.53;;;-4.30;41.94
49943;BME280;36011;53.362;58.948;2023-01-27T17:43:40;97201.69;;;-4.51;42.44
49943;BME280;36011;53.362;58.948;2023-01-27T17:50:35;97216.25;;;-4.55;43.05
49943;BME280;36011;53.362;58.948;2023-01-27T17:53:39;97219.66;;;-4.66;42.91
49943;BME280;36011;53.362;58.948;2023-01-27T17:56:44;97224.78;;;-4.62;42.21
49943;BME280;36011;53.362;58.948;2023-01-27T17:59:53;97225.66;;;-4.60;41.69
49943;BME280;36011;53.362;58.948;2023-01-27T18:03:03;97224.78;;;-4.59;41.92
49943;BME280;36011;53.362;58.948;2023-01-27T18:06:12;97220.53;;;-4.58;41.44
49943;BME280;36011;53.362;58.948;2023-01-27T18:09:23;97234.19;;;-4.70;41.80
49943;BME280;36011;53.362;58.948;2023-01-27T18:12:34;97235.06;;;-4.92;42.09
49943;BME280;36011;53.362;58.948;2023-01-27T18:15:37;97234.16;;;-4.90;42.02
49943;BME280;36011;53.362;58.948;2023-01-27T18:18:44;97230.66;;;-5.27;42.39
49943;BME280;36011;53.362;58.948;2023-01-27T18:21:47;97235.81;;;-5.26;43.00
49943;BME280;36011;53.362;58.948;2023-01-27T18:24:54;97229.84;;;-5.29;42.84
49943;BME280;36011;53.362;58.948;2023-01-27T18:28:00;97216.16;;;-5.25;42.67
49943;BME280;36011;53.362;58.948;2023-01-27T18:31:04;97237.53;;;-5.20;42.31
49943;BME280;36011;53.362;58.948;2023-01-27T18:40:28;97202.47;;;-5.24;42.28
49943;BME280;36011;53.362;58.948;2023-01-27T18:43:32;97205.03;;;-5.20;42.58
49943;BME280;36011;53.362;58.948;2023-01-27T18:46:33;97214.47;;;-5.11;42.18
49943;BME280;36011;53.362;58.948;2023-01-27T18:49:36;97219.59;;;-5.17;41.97
49943;BME280;36011;53.362;58.948;2023-01-27T18:52:57;97209.25;;;-5.38;42.36
49943;BME280;36011;53.362;58.948;2023-01-27T18:55:58;97198.94;;;-5.52;42.54
49943;BME280;36011;53.362;58.948;2023-01-27T18:59:06;97205.88;;;-5.37;42.14
49943;BME280;36011;53.362;58.948;2023-01-27T19:02:13;97202.34;;;-5.64;42.33
49943;BME280;36011;53.362;58.948;2023-01-27T19:05:22;97193.91;;;-5.25;42.13
49943;BME280;36011;53.362;58.948;2023-01-27T19:08:23;97182.78;;;-5.30;41.47
49943;BME280;36011;53.362;58.948;2023-01-27T19:11:28;97200.78;;;-5.10;41.36
49943;BME280;36011;53.362;58.948;2023-01-27T19:14:31;97188.81;;;-5.17;40.92